Terminal Aerodrome Forecast
Issued by NWS Duluth, MN

Home | Current Version | Previous Version | Text Only | Print | Product List | Glossary On
Versions: 1 2 3 4 5 6 7 8 9 10 11 12 13 14 15 16 17 18 19 20 21 22 23 24 25 26 27 28 29
000
FTUS43 KDLH 292300
TAFDLH
TAF
KDLH 292333Z 3000/3024 33012KT P6SM -SN BKN025
      TEMPO 3000/3003 SCT025
     FM300300 34008KT P6SM SCT025
     FM301500 28007KT P6SM SCT015 OVC060
     FM302000 24010G20KT P6SM VCSH OVC040=

USA.gov is the U.S. government's official web portal to all federal, state and local government web resources and services.